首页
METAR-TAF:

METAR-TAF

机场 :

Luxeuil-les-Bains, 法国

纬度: 47-47N, 经度: 006-21E, 海拔: 278米

当前天气观测

该预报发布于37分钟前的18:00 UTC
风速4节,风向西,在西转西南西北之间变化
温度 16°C
湿度 77%
气压 998 hPa
能见度10公里或以上

METAR: LFSX 041800Z AUTO 28004KT 250V310 9999 FEW036/// BKN056/// OVC070/// ///CB 16/12 Q0998

时间: 20:37 (18:37 UTC)

预报

该预报发布于4小时和37分钟前的14:00 UTC
预报有效从04日的 15点(UTC)到 05日的 15点(UTC)
风速10节,风向西转西北
能见度10公里或以上
散云层高于2000英尺
阴天层高于20000英尺
短暂存在
从 04日的 15点(UTC)到 04日的 24点(UTC)
能見度: 4000
散云层高于2000英尺, 塔状积云.
多云层高于3000英尺
阵雨
几率 40% :
短暂存在
从 04日的 15点(UTC)到 04日的 24点(UTC)
能見度: 1500
多云层高于1500英尺, 积雨云.
阴天层高于3000英尺
雷暴, 雨
成为
从 05日的 03点(UTC)到 05日的 05点(UTC)
风速10节,风向南转西南
短暂存在
从 05日的 05点(UTC)到 05日的 15点(UTC)
风速10节,风向西南,有时为25节阵风
能見度: 4000
散云层高于2000英尺, 塔状积云.
多云层高于3000英尺
阵雨

TAF: LFSX 041400Z 0415/0515 29010KT 9999 SCT020 OVC200 TEMPO 0415/0424 4000 SHRA SCT020TCU BKN030 PROB40 TEMPO 0415/0424 1500 TSRA BKN015CB OVC030 BECMG 0503/0505 21010KT TEMPO 0505/0515 23010G25KT 4000 SHRA SCT020TCU BKN030

超过4000个机场的气象观测和天气预报(METAR&TAF报告)。

可查询的气象台以黄色和红色小点在地图上表示。

将鼠标移到小点上方,可查看气象台名称。

然后点击查看天气观测和预报。

如需切换地图:点击带黑十字的绿色按钮放大地图;点击带横线的绿色按钮缩小地图;或者点击绿色箭头查看邻近地区的地图。


METAR-TAF: